createdAt,value
2023-02-12T00:01:09.680Z,96.50
2023-02-12T00:03:37.720Z,96.50
2023-02-12T00:06:08.152Z,96.50
2023-02-12T00:08:36.869Z,96.40
2023-02-12T00:11:10.074Z,96.50
2023-02-12T00:13:38.636Z,96.60
2023-02-12T00:16:08.425Z,96.60
2023-02-12T00:18:36.548Z,96.60
2023-02-12T00:21:05.232Z,96.60
2023-02-12T00:23:34.599Z,96.60
2023-02-12T00:26:05.986Z,96.70
2023-02-12T00:28:34.014Z,96.80
2023-02-12T00:31:06.642Z,96.80
2023-02-12T00:33:34.698Z,96.90
2023-02-12T00:36:02.747Z,97.30
2023-02-12T00:38:30.681Z,96.30
2023-02-12T00:40:59.981Z,96.30
2023-02-12T00:43:28.080Z,96.10
2023-02-12T00:45:56.453Z,96.20
2023-02-12T00:48:24.485Z,96.30
2023-02-12T00:50:52.573Z,96.40
2023-02-12T00:53:20.648Z,96.40
2023-02-12T00:55:48.533Z,96.50
2023-02-12T00:58:19.009Z,96.50
2023-02-12T01:00:47.263Z,96.70
2023-02-12T01:03:15.502Z,96.70
2023-02-12T01:05:43.775Z,96.80
2023-02-12T01:08:14.118Z,96.50
2023-02-12T01:10:42.474Z,96.60
2023-02-12T01:13:13.831Z,96.70
2023-02-12T01:15:43.611Z,96.00
2023-02-12T01:18:12.796Z,96.00
2023-02-12T01:20:41.400Z,96.30
2023-02-12T01:23:09.490Z,96.50
2023-02-12T01:25:39.307Z,96.60
2023-02-12T01:28:07.194Z,96.70
2023-02-12T01:30:35.067Z,96.80
2023-02-12T01:33:04.410Z,96.50
2023-02-12T01:35:32.286Z,96.40
2023-02-12T01:38:00.131Z,96.60
2023-02-12T01:40:27.999Z,96.70
2023-02-12T01:42:55.897Z,96.80
2023-02-12T01:45:52.958Z,96.90
2023-02-12T01:48:26.609Z,96.10
2023-02-12T01:50:56.746Z,95.90
2023-02-12T01:53:29.437Z,95.90
2023-02-12T01:56:00.365Z,96.00
2023-02-12T01:58:31.266Z,96.20
2023-02-12T02:01:01.463Z,96.40
2023-02-12T02:03:30.827Z,96.50
2023-02-12T02:06:03.850Z,96.60
2023-02-12T02:08:31.986Z,96.60
2023-02-12T02:10:59.851Z,96.50
2023-02-12T02:13:45.418Z,96.50
2023-02-12T02:16:21.667Z,96.40
2023-02-12T02:18:56.901Z,96.20
2023-02-12T02:22:04.132Z,95.70
2023-02-12T02:25:03.237Z,95.70
2023-02-12T02:27:41.323Z,95.70
2023-02-12T02:30:21.556Z,95.60
2023-02-12T02:32:57.936Z,95.70
2023-02-12T02:35:33.412Z,95.90
2023-02-12T02:38:11.428Z,96.10
2023-02-12T02:40:46.121Z,96.20
2023-02-12T02:43:19.354Z,96.10
2023-02-12T02:45:51.073Z,96.30
2023-02-12T02:48:23.582Z,96.40
2023-02-12T02:50:55.936Z,96.50
2023-02-12T02:53:30.891Z,96.60
2023-02-12T02:56:03.023Z,96.60
2023-02-12T02:58:36.803Z,96.10
2023-02-12T03:01:11.231Z,96.00
2023-02-12T03:03:43.729Z,95.80
2023-02-12T03:06:16.720Z,95.80
2023-02-12T03:08:53.397Z,96.00
2023-02-12T03:11:26.486Z,96.10
2023-02-12T03:13:58.703Z,96.00
2023-02-12T03:16:30.515Z,95.90
2023-02-12T03:19:07.192Z,95.60
2023-02-12T03:21:40.645Z,95.90
2023-02-12T03:24:14.461Z,96.00
2023-02-12T03:26:47.465Z,96.20
2023-02-12T03:29:15.645Z,96.70
2023-02-12T03:31:57.259Z,96.40
2023-02-12T03:34:34.469Z,96.40
2023-02-12T03:37:06.520Z,95.80
2023-02-12T03:39:46.392Z,95.50
2023-02-12T03:42:19.818Z,95.70
2023-02-12T03:44:53.139Z,95.60
2023-02-12T03:47:32.433Z,95.90
2023-02-12T03:50:07.901Z,95.90
2023-02-12T03:52:36.196Z,95.90
2023-02-12T03:55:05.692Z,96.00
2023-02-12T03:57:38.362Z,96.00
2023-02-12T04:00:09.110Z,96.00
2023-02-12T04:02:38.358Z,96.00
2023-02-12T04:05:07.793Z,96.00
2023-02-12T04:07:37.566Z,95.90
2023-02-12T04:10:05.992Z,96.10
2023-02-12T04:12:42.196Z,96.40
2023-02-12T04:15:44.090Z,96.10
2023-02-12T04:18:20.284Z,96.10
2023-02-12T04:20:56.713Z,96.20
2023-02-12T04:23:41.686Z,96.30
2023-02-12T04:26:15.483Z,95.50
2023-02-12T04:28:48.644Z,95.30
2023-02-12T04:31:24.756Z,95.30
2023-02-12T04:34:02.992Z,95.20
2023-02-12T04:36:36.048Z,95.40
2023-02-12T04:39:11.119Z,95.10
2023-02-12T04:41:40.374Z,95.20
2023-02-12T04:44:20.134Z,95.50
2023-02-12T04:46:48.249Z,95.60
2023-02-12T04:49:19.304Z,95.50
2023-02-12T04:51:48.130Z,95.20
2023-02-12T04:54:17.408Z,95.40
2023-02-12T04:56:45.809Z,95.40
2023-02-12T04:59:14.226Z,95.60
2023-02-12T05:01:44.210Z,95.70
2023-02-12T05:04:14.137Z,95.70
2023-02-12T05:06:44.447Z,95.90
2023-02-12T05:09:15.514Z,96.00
2023-02-12T05:11:43.852Z,96.20
2023-02-12T05:14:11.979Z,96.20
2023-02-12T05:16:39.849Z,96.30
2023-02-12T05:19:09.518Z,96.30
2023-02-12T05:21:38.101Z,96.30
2023-02-12T05:24:07.783Z,95.70
2023-02-12T05:26:36.234Z,95.50
2023-02-12T05:29:04.516Z,95.90
2023-02-12T05:31:32.527Z,96.30
2023-02-12T05:34:00.521Z,96.10
2023-02-12T05:36:28.936Z,95.90
2023-02-12T05:39:00.024Z,95.70
2023-02-12T05:41:29.528Z,95.90
2023-02-12T05:43:57.406Z,96.20
2023-02-12T05:46:25.314Z,96.30
2023-02-12T05:48:53.336Z,96.30
2023-02-12T05:51:26.086Z,96.30
2023-02-12T05:53:57.775Z,96.40
2023-02-12T05:56:28.140Z,96.40
2023-02-12T05:58:59.443Z,96.20
2023-02-12T06:01:31.027Z,96.00
2023-02-12T06:03:59.674Z,96.20
2023-02-12T06:06:27.957Z,96.30
2023-02-12T06:08:56.175Z,96.30
2023-02-12T06:11:24.198Z,96.70
2023-02-12T06:13:52.443Z,96.40
2023-02-12T06:16:24.100Z,96.20
2023-02-12T06:18:52.418Z,96.20
2023-02-12T06:21:22.132Z,96.20
2023-02-12T06:23:51.397Z,96.10
2023-02-12T06:26:21.214Z,96.10
2023-02-12T06:28:49.490Z,96.20
2023-02-12T06:31:22.085Z,96.20
2023-02-12T06:33:50.417Z,96.10
2023-02-12T06:36:18.455Z,96.10
2023-02-12T06:38:47.013Z,96.10
2023-02-12T06:41:15.138Z,96.30
2023-02-12T06:43:43.366Z,96.40
2023-02-12T06:46:11.740Z,96.40
2023-02-12T06:48:41.188Z,96.40
2023-02-12T06:51:11.133Z,96.40
2023-02-12T06:53:39.152Z,96.40
2023-02-12T06:56:11.229Z,96.40
2023-02-12T06:58:40.069Z,96.40
2023-02-12T07:01:13.748Z,96.40
2023-02-12T07:03:43.884Z,96.50
2023-02-12T07:06:12.112Z,96.50
2023-02-12T07:08:40.234Z,96.50
2023-02-12T07:11:08.620Z,96.50
2023-02-12T07:13:36.771Z,96.60
2023-02-12T07:16:06.729Z,96.90
2023-02-12T07:18:34.851Z,96.60
2023-02-12T07:21:04.900Z,96.60
2023-02-12T07:23:33.407Z,96.60
2023-02-12T07:26:03.458Z,96.70
2023-02-12T07:28:33.844Z,96.70
2023-02-12T07:31:06.903Z,96.40
2023-02-12T07:33:34.932Z,96.30
2023-02-12T07:36:05.538Z,96.30
2023-02-12T07:38:35.989Z,96.20
2023-02-12T07:41:13.264Z,96.30
2023-02-12T07:43:41.837Z,96.40
2023-02-12T07:46:12.272Z,96.50
2023-02-12T07:48:40.299Z,96.60
2023-02-12T07:51:11.325Z,96.50
2023-02-12T07:53:39.862Z,96.30
2023-02-12T07:56:10.107Z,96.40
2023-02-12T07:58:38.511Z,96.60
2023-02-12T08:01:14.052Z,96.70
2023-02-12T08:03:42.138Z,96.70
2023-02-12T08:06:13.947Z,96.70
2023-02-12T08:08:41.895Z,96.70
2023-02-12T08:11:10.947Z,96.70
2023-02-12T08:13:39.588Z,96.70
2023-02-12T08:16:10.022Z,96.70
2023-02-12T08:18:37.992Z,96.70
2023-02-12T08:21:07.105Z,96.90
2023-02-12T08:23:36.666Z,97.00
2023-02-12T08:26:12.175Z,97.10
2023-02-12T08:28:42.339Z,97.20
2023-02-12T08:31:13.171Z,97.10
2023-02-12T08:33:41.306Z,97.20
2023-02-12T08:36:11.460Z,97.20
2023-02-12T08:38:41.290Z,97.30
2023-02-12T08:41:10.516Z,97.40
2023-02-12T08:43:40.640Z,97.40
2023-02-12T08:46:11.573Z,97.40
2023-02-12T08:48:39.661Z,97.50
2023-02-12T08:51:09.645Z,97.60
2023-02-12T08:53:38.025Z,97.60
2023-02-12T08:56:08.582Z,97.70
2023-02-12T08:58:37.257Z,97.70
2023-02-12T09:01:10.000Z,97.70
2023-02-12T09:03:38.001Z,97.70
2023-02-12T09:06:06.894Z,97.70
2023-02-12T09:08:34.909Z,97.70
2023-02-12T09:11:08.288Z,97.60
2023-02-12T09:13:36.418Z,97.90
2023-02-12T09:16:05.700Z,97.70
2023-02-12T09:18:34.432Z,97.70
2023-02-12T09:21:03.795Z,97.80
2023-02-12T09:23:31.968Z,97.90
2023-02-12T09:26:00.281Z,97.90
2023-02-12T09:28:29.533Z,97.90
2023-02-12T09:30:57.894Z,98.00
2023-02-12T09:33:25.955Z,98.00
2023-02-12T09:35:54.191Z,98.00
2023-02-12T09:38:22.391Z,98.10
2023-02-12T09:41:03.329Z,98.10
2023-02-12T09:43:40.330Z,97.90
2023-02-12T09:46:17.272Z,98.00
2023-02-12T09:48:55.473Z,98.00
2023-02-12T09:51:23.842Z,98.10
2023-02-12T09:54:03.741Z,98.20
2023-02-12T09:56:32.408Z,98.30
2023-02-12T09:59:06.694Z,98.30
2023-02-12T10:01:35.348Z,98.40
2023-02-12T10:04:05.977Z,98.30
2023-02-12T10:06:38.725Z,97.90
2023-02-12T10:09:26.437Z,98.20
2023-02-12T10:12:00.486Z,98.10
2023-02-12T10:14:50.169Z,98.00
2023-02-12T10:17:25.267Z,97.70
2023-02-12T10:20:10.985Z,98.00
2023-02-12T10:22:56.909Z,97.70
2023-02-12T10:25:29.898Z,97.70
2023-02-12T10:28:02.100Z,97.80
2023-02-12T10:30:41.415Z,97.40
2023-02-12T10:33:15.707Z,96.80
2023-02-12T10:35:49.136Z,96.90
2023-02-12T10:38:20.942Z,97.20
2023-02-12T10:40:50.325Z,97.30
2023-02-12T10:43:18.849Z,97.10
2023-02-12T10:45:48.951Z,97.00
2023-02-12T10:48:21.141Z,97.00
2023-02-12T10:51:03.661Z,97.00
2023-02-12T10:53:34.605Z,97.00
2023-02-12T10:56:18.373Z,96.80
2023-02-12T10:58:55.718Z,96.50
2023-02-12T11:01:28.173Z,96.70
2023-02-12T11:03:57.119Z,96.90
2023-02-12T11:06:27.819Z,96.60
2023-02-12T11:08:56.346Z,96.00
2023-02-12T11:11:27.874Z,95.30
2023-02-12T11:13:58.680Z,95.30
2023-02-12T11:16:33.792Z,94.80
2023-02-12T11:19:04.833Z,94.80
2023-02-12T11:21:33.490Z,93.60
2023-02-12T11:24:23.217Z,92.00
2023-02-12T11:26:51.160Z,92.60
2023-02-12T11:29:21.461Z,91.60
2023-02-12T11:32:04.469Z,91.40
2023-02-12T11:34:32.554Z,91.10
2023-02-12T11:37:01.671Z,90.20
2023-02-12T11:39:33.045Z,90.80
2023-02-12T11:42:03.895Z,90.10
2023-02-12T11:44:36.450Z,89.40
2023-02-12T11:47:09.241Z,90.00
2023-02-12T11:49:43.991Z,89.20
2023-02-12T11:52:21.539Z,90.60
2023-02-12T11:54:51.534Z,91.40
2023-02-12T11:57:39.542Z,88.10
2023-02-12T12:00:15.260Z,83.10
2023-02-12T12:02:49.357Z,79.10
2023-02-12T12:05:20.961Z,73.80
2023-02-12T12:07:54.155Z,72.10
2023-02-12T12:10:30.070Z,74.60
2023-02-12T12:13:01.109Z,72.80
2023-02-12T12:15:50.863Z,75.70
2023-02-12T12:18:43.934Z,76.20
2023-02-12T12:21:20.344Z,70.70
2023-02-12T12:23:53.688Z,70.80
2023-02-12T12:26:25.161Z,69.40
2023-02-12T12:28:58.644Z,69.10
2023-02-12T12:31:32.864Z,66.20
2023-02-12T12:34:07.942Z,68.10
2023-02-12T12:37:02.328Z,71.00
2023-02-12T12:39:36.849Z,72.20
2023-02-12T12:42:47.471Z,71.80
2023-02-12T12:45:31.272Z,74.80
2023-02-12T12:48:11.139Z,73.50
2023-02-12T12:51:05.314Z,72.80
2023-02-12T12:53:47.119Z,74.80
2023-02-12T12:56:38.918Z,73.20
2023-02-12T12:59:31.876Z,73.00
2023-02-12T13:02:20.071Z,75.00
2023-02-12T13:05:19.093Z,74.50
2023-02-12T13:08:00.129Z,74.30
2023-02-12T13:10:35.307Z,73.80
2023-02-12T13:13:20.566Z,74.30
2023-02-12T13:15:56.825Z,75.60
2023-02-12T13:18:37.443Z,76.20
2023-02-12T13:21:12.049Z,76.30
2023-02-12T13:23:49.263Z,76.20
2023-02-12T13:26:23.900Z,76.90
2023-02-12T13:28:56.109Z,76.30
2023-02-12T13:31:33.951Z,75.10
2023-02-12T13:34:05.415Z,76.50
2023-02-12T13:36:34.416Z,78.00
2023-02-12T13:39:11.663Z,77.40
2023-02-12T13:41:40.809Z,76.80
2023-02-12T13:44:21.165Z,77.70
2023-02-12T13:46:57.118Z,76.60
2023-02-12T13:49:38.433Z,77.90
2023-02-12T13:52:11.684Z,79.20
2023-02-12T13:54:50.728Z,80.20
2023-02-12T13:57:20.320Z,82.70
2023-02-12T13:59:50.057Z,82.50
2023-02-12T14:02:44.021Z,83.70
2023-02-12T14:05:22.664Z,83.70
2023-02-12T14:07:52.763Z,83.50
2023-02-12T14:10:29.760Z,84.50
2023-02-12T14:13:10.059Z,83.60
2023-02-12T14:15:40.830Z,84.20
2023-02-12T14:18:27.170Z,85.80
2023-02-12T14:21:45.702Z,84.90
2023-02-12T14:24:50.492Z,85.50
2023-02-12T14:27:47.240Z,86.50
2023-02-12T14:30:31.694Z,85.90
2023-02-12T14:33:12.222Z,85.90
2023-02-12T14:35:42.165Z,85.80
2023-02-12T14:38:58.525Z,86.20
2023-02-12T14:41:41.784Z,86.70
2023-02-12T14:44:48.985Z,86.60
2023-02-12T14:47:53.695Z,86.80
2023-02-12T14:50:30.074Z,85.90
2023-02-12T14:53:06.195Z,85.80
2023-02-12T14:55:35.973Z,86.10
2023-02-12T14:58:07.462Z,87.00
2023-02-12T15:00:40.068Z,86.60
2023-02-12T15:03:25.753Z,86.10
2023-02-12T15:06:02.313Z,86.70
2023-02-12T15:08:37.124Z,86.70
2023-02-12T15:11:30.904Z,87.40
2023-02-12T15:14:03.462Z,87.50
2023-02-12T15:16:39.638Z,87.50
2023-02-12T15:19:21.598Z,88.10
2023-02-12T15:21:49.758Z,90.20
2023-02-12T15:24:26.954Z,90.60
2023-02-12T15:26:57.320Z,90.90
2023-02-12T15:29:28.655Z,90.80
2023-02-12T15:32:05.342Z,90.90
2023-02-12T15:34:37.920Z,91.00
2023-02-12T15:37:08.479Z,91.50
2023-02-12T15:39:43.529Z,91.60
2023-02-12T15:42:25.660Z,91.70
2023-02-12T15:44:53.672Z,91.90
2023-02-12T15:47:26.215Z,91.80
2023-02-12T15:50:00.922Z,92.20
2023-02-12T15:52:35.390Z,92.20
2023-02-12T15:55:05.794Z,92.30
2023-02-12T15:57:34.475Z,92.50
2023-02-12T16:00:08.156Z,92.60
2023-02-12T16:02:37.544Z,92.60
2023-02-12T16:05:07.680Z,92.70
2023-02-12T16:07:37.961Z,92.70
2023-02-12T16:10:07.515Z,92.90
2023-02-12T16:12:37.639Z,93.10
2023-02-12T16:15:06.444Z,93.00
2023-02-12T16:17:38.349Z,92.80
2023-02-12T16:20:21.807Z,93.30
2023-02-12T16:22:51.564Z,93.10
2023-02-12T16:25:23.584Z,92.80
2023-02-12T16:27:58.608Z,92.80
2023-02-12T16:30:29.616Z,93.20
2023-02-12T16:32:59.739Z,93.00
2023-02-12T16:35:31.189Z,93.40
2023-02-12T16:38:05.015Z,93.60
2023-02-12T16:40:37.072Z,93.80
2023-02-12T16:43:31.893Z,94.00
2023-02-12T16:46:07.192Z,93.90
2023-02-12T16:48:41.688Z,93.80
2023-02-12T16:51:23.851Z,93.90
2023-02-12T16:53:53.915Z,94.00
2023-02-12T16:56:23.349Z,94.30
2023-02-12T16:58:55.173Z,94.40
2023-02-12T17:01:25.155Z,94.40
2023-02-12T17:03:55.302Z,94.40
2023-02-12T17:06:24.922Z,94.40
2023-02-12T17:08:53.288Z,94.40
2023-02-12T17:11:23.119Z,94.40
2023-02-12T17:13:53.129Z,94.40
2023-02-12T17:16:30.239Z,94.60
2023-02-12T17:19:00.586Z,94.90
2023-02-12T17:21:31.870Z,95.00
2023-02-12T17:23:59.832Z,95.10
2023-02-12T17:26:28.499Z,95.10
2023-02-12T17:28:56.585Z,94.70
2023-02-12T17:31:24.786Z,95.20
2023-02-12T17:33:52.768Z,94.90
2023-02-12T17:36:22.036Z,94.80
2023-02-12T17:38:49.897Z,94.80
2023-02-12T17:41:18.328Z,94.90
2023-02-12T17:43:46.429Z,95.00
2023-02-12T17:46:22.006Z,95.00
2023-02-12T17:48:50.007Z,95.20
2023-02-12T17:51:18.482Z,95.40
2023-02-12T17:53:47.842Z,95.00
2023-02-12T17:56:18.148Z,94.90
2023-02-12T17:58:46.705Z,95.30
2023-02-12T18:01:16.623Z,95.40
2023-02-12T18:03:44.738Z,95.60
2023-02-12T18:06:16.315Z,95.60
2023-02-12T18:08:44.812Z,95.50
2023-02-12T18:11:14.834Z,95.40
2023-02-12T18:13:43.068Z,95.30
2023-02-12T18:16:11.563Z,95.20
2023-02-12T18:18:41.274Z,95.30
2023-02-12T18:21:10.630Z,95.40
2023-02-12T18:23:39.102Z,95.30
2023-02-12T18:26:08.165Z,95.30
2023-02-12T18:28:37.572Z,95.20
2023-02-12T18:31:06.457Z,95.20
2023-02-12T18:33:34.701Z,95.20
2023-02-12T18:36:04.089Z,94.60
2023-02-12T18:38:32.924Z,95.40
2023-02-12T18:41:00.887Z,95.20
2023-02-12T18:43:28.802Z,95.10
2023-02-12T18:45:58.025Z,95.30
2023-02-12T18:48:25.928Z,95.40
2023-02-12T18:50:55.468Z,95.50
2023-02-12T18:53:23.469Z,95.30
2023-02-12T18:55:52.403Z,95.20
2023-02-12T18:58:20.332Z,95.30
2023-02-12T19:00:48.268Z,95.20
2023-02-12T19:03:17.974Z,95.20
2023-02-12T19:05:45.838Z,95.20
2023-02-12T19:08:14.120Z,95.40
2023-02-12T19:10:42.464Z,95.50
2023-02-12T19:13:10.522Z,95.40
2023-02-12T19:15:39.817Z,95.50
2023-02-12T19:18:07.756Z,95.60
2023-02-12T19:20:40.270Z,95.70
2023-02-12T19:23:08.223Z,95.70
2023-02-12T19:25:39.633Z,95.90
2023-02-12T19:28:07.584Z,95.70
2023-02-12T19:30:37.366Z,95.90
2023-02-12T19:33:05.556Z,95.90
2023-02-12T19:35:33.737Z,95.90
2023-02-12T19:38:03.019Z,95.90
2023-02-12T19:40:32.126Z,95.80
2023-02-12T19:43:00.000Z,95.90
2023-02-12T19:45:27.947Z,95.90
2023-02-12T19:47:55.877Z,95.90
2023-02-12T19:50:23.773Z,96.10
2023-02-12T19:52:51.627Z,96.00
2023-02-12T19:55:20.805Z,96.10
2023-02-12T19:57:49.752Z,96.10
2023-02-12T20:00:18.015Z,96.00
2023-02-12T20:02:45.936Z,96.00
2023-02-12T20:05:14.280Z,96.00
2023-02-12T20:07:42.157Z,96.00
2023-02-12T20:10:12.047Z,96.00
2023-02-12T20:12:41.289Z,96.30
2023-02-12T20:15:09.918Z,96.30
2023-02-12T20:17:37.780Z,96.40
2023-02-12T20:20:07.011Z,96.50
2023-02-12T20:22:36.714Z,96.40
2023-02-12T20:25:04.598Z,96.40
2023-02-12T20:27:32.823Z,96.50
2023-02-12T20:30:02.062Z,96.40
2023-02-12T20:32:29.956Z,96.30
2023-02-12T20:34:57.956Z,96.40
2023-02-12T20:37:25.834Z,96.50
2023-02-12T20:39:53.725Z,96.50
2023-02-12T20:42:21.571Z,96.70
2023-02-12T20:44:49.457Z,96.70
2023-02-12T20:47:18.758Z,96.70
2023-02-12T20:49:46.656Z,96.60
2023-02-12T20:52:14.672Z,96.70
2023-02-12T20:54:42.750Z,96.80
2023-02-12T20:57:10.592Z,96.90
2023-02-12T20:59:38.728Z,96.90
2023-02-12T21:02:06.870Z,96.90
2023-02-12T21:04:36.086Z,97.00
2023-02-12T21:07:04.016Z,96.90
2023-02-12T21:09:31.904Z,97.00
2023-02-12T21:11:59.758Z,97.10
2023-02-12T21:14:27.855Z,97.10
2023-02-12T21:16:56.846Z,97.20
2023-02-12T21:19:25.626Z,97.20
2023-02-12T21:21:54.970Z,97.20
2023-02-12T21:24:24.839Z,97.10
2023-02-12T21:26:54.200Z,97.00
2023-02-12T21:29:22.720Z,97.00
2023-02-12T21:31:51.986Z,97.00
2023-02-12T21:34:22.156Z,96.90
2023-02-12T21:36:51.313Z,97.00
2023-02-12T21:39:26.092Z,97.00
2023-02-12T21:41:56.112Z,97.00
2023-02-12T21:44:25.349Z,96.90
2023-02-12T21:46:54.094Z,96.90
2023-02-12T21:49:28.786Z,96.90
2023-02-12T21:51:59.220Z,96.80
2023-02-12T21:54:29.500Z,96.80
2023-02-12T21:56:57.758Z,96.80
2023-02-12T21:59:26.537Z,96.80
2023-02-12T22:01:58.330Z,96.80
2023-02-12T22:04:26.995Z,96.80
2023-02-12T22:06:56.526Z,96.80
2023-02-12T22:09:24.829Z,96.60
2023-02-12T22:11:54.096Z,96.60
2023-02-12T22:14:23.164Z,96.60
2023-02-12T22:16:51.519Z,96.70
2023-02-12T22:19:19.651Z,96.70
2023-02-12T22:21:51.313Z,96.70
2023-02-12T22:24:19.294Z,96.60
2023-02-12T22:26:47.232Z,96.70
2023-02-12T22:29:17.321Z,96.60
2023-02-12T22:31:46.823Z,96.30
2023-02-12T22:34:17.076Z,96.30
2023-02-12T22:36:45.718Z,96.50
2023-02-12T22:39:14.607Z,96.50
2023-02-12T22:41:43.104Z,96.60
2023-02-12T22:44:12.498Z,96.60
2023-02-12T22:46:42.241Z,96.60
2023-02-12T22:49:10.619Z,96.50
2023-02-12T22:51:39.658Z,96.50
2023-02-12T22:54:08.697Z,96.50
2023-02-12T22:56:36.626Z,96.50
2023-02-12T22:59:04.583Z,96.30
2023-02-12T23:01:32.794Z,96.30
2023-02-12T23:04:02.066Z,96.40
2023-02-12T23:06:31.654Z,96.50
2023-02-12T23:09:01.153Z,96.50
2023-02-12T23:11:31.027Z,96.40
2023-02-12T23:13:58.956Z,96.40
2023-02-12T23:16:27.575Z,96.50
2023-02-12T23:18:56.686Z,96.60
2023-02-12T23:21:26.581Z,96.60
2023-02-12T23:23:54.914Z,96.70
2023-02-12T23:26:23.254Z,96.60
2023-02-12T23:28:51.374Z,96.60
2023-02-12T23:31:19.309Z,96.60
2023-02-12T23:33:47.237Z,96.60
2023-02-12T23:36:15.112Z,96.70
2023-02-12T23:38:44.323Z,96.70
2023-02-12T23:41:12.202Z,96.70
2023-02-12T23:43:40.112Z,96.80
2023-02-12T23:46:09.273Z,96.90
2023-02-12T23:48:37.330Z,96.90
2023-02-12T23:51:05.585Z,96.90
2023-02-12T23:53:33.496Z,96.90
2023-02-12T23:56:02.708Z,96.90
2023-02-12T23:58:30.547Z,96.80
